sensor_id;sensor_type;location;lat;lon;timestamp;pressure;altitude;pressure_sealevel;temperature;humidity
76940;BME280;65885;55.848;35.916;2023-06-22T00:01:18;99518.16;;;9.01;56.44
76940;BME280;65885;55.848;35.916;2023-06-22T00:03:45;99522.56;;;8.99;55.80
76940;BME280;65885;55.848;35.916;2023-06-22T00:06:12;99516.53;;;8.97;55.76
76940;BME280;65885;55.848;35.916;2023-06-22T00:08:40;99524.38;;;8.97;57.97
76940;BME280;65885;55.848;35.916;2023-06-22T00:11:07;99515.72;;;8.95;59.02
76940;BME280;65885;55.848;35.916;2023-06-22T00:13:36;99524.47;;;8.94;58.59
76940;BME280;65885;55.848;35.916;2023-06-22T00:16:04;99522.81;;;8.91;58.51
76940;BME280;65885;55.848;35.916;2023-06-22T00:18:31;99518.47;;;8.90;60.10
76940;BME280;65885;55.848;35.916;2023-06-22T00:20:59;99529.81;;;8.90;60.80
76940;BME280;65885;55.848;35.916;2023-06-22T00:23:26;99526.38;;;8.88;60.88
76940;BME280;65885;55.848;35.916;2023-06-22T00:25:54;99523.84;;;8.87;60.40
76940;BME280;65885;55.848;35.916;2023-06-22T00:28:21;99519.56;;;8.84;58.84
76940;BME280;65885;55.848;35.916;2023-06-22T00:30:50;99518.69;;;8.84;56.74
76940;BME280;65885;55.848;35.916;2023-06-22T00:33:17;99523.06;;;8.83;56.13
76940;BME280;65885;55.848;35.916;2023-06-22T00:35:44;99515.31;;;8.80;56.11
76940;BME280;65885;55.848;35.916;2023-06-22T00:38:12;99513.63;;;8.79;57.23
76940;BME280;65885;55.848;35.916;2023-06-22T00:40:39;99511.97;;;8.77;58.20
76940;BME280;65885;55.848;35.916;2023-06-22T00:43:06;99511.19;;;8.73;56.60
76940;BME280;65885;55.848;35.916;2023-06-22T00:45:34;99511.25;;;8.72;56.33
76940;BME280;65885;55.848;35.916;2023-06-22T00:48:03;99510.41;;;8.71;57.93
76940;BME280;65885;55.848;35.916;2023-06-22T00:50:32;99511.34;;;8.69;57.72
76940;BME280;65885;55.848;35.916;2023-06-22T00:53:01;99509.75;;;8.65;57.12
76940;BME280;65885;55.848;35.916;2023-06-22T00:55:32;99511.56;;;8.63;57.51
76940;BME280;65885;55.848;35.916;2023-06-22T00:58:03;99513.34;;;8.60;58.31
76940;BME280;65885;55.848;35.916;2023-06-22T01:00:33;99504.81;;;8.55;58.50
76940;BME280;65885;55.848;35.916;2023-06-22T01:03:04;99504.00;;;8.53;59.90
76940;BME280;65885;55.848;35.916;2023-06-22T01:05:34;99511.03;;;8.51;60.70
76940;BME280;65885;55.848;35.916;2023-06-22T01:08:08;99520.66;;;8.51;61.38
76940;BME280;65885;55.848;35.916;2023-06-22T01:10:43;99516.31;;;8.50;60.93
76940;BME280;65885;55.848;35.916;2023-06-22T01:13:18;99520.69;;;8.49;59.53
76940;BME280;65885;55.848;35.916;2023-06-22T01:15:51;99521.66;;;8.47;57.32
76940;BME280;65885;55.848;35.916;2023-06-22T01:18:22;99523.31;;;8.49;57.95
76940;BME280;65885;55.848;35.916;2023-06-22T01:20:52;99528.59;;;8.48;57.20
76940;BME280;65885;55.848;35.916;2023-06-22T01:23:27;99525.06;;;8.49;57.01
76940;BME280;65885;55.848;35.916;2023-06-22T01:26:01;99529.41;;;8.50;58.80
76940;BME280;65885;55.848;35.916;2023-06-22T01:28:52;99526.72;;;8.51;59.70
76940;BME280;65885;55.848;35.916;2023-06-22T01:31:23;99525.03;;;8.50;58.81
76940;BME280;65885;55.848;35.916;2023-06-22T01:33:52;99529.41;;;8.50;56.46
76940;BME280;65885;55.848;35.916;2023-06-22T01:36:21;99529.34;;;8.51;57.35
76940;BME280;65885;55.848;35.916;2023-06-22T01:38:49;99526.66;;;8.54;58.06
76940;BME280;65885;55.848;35.916;2023-06-22T01:41:18;99538.75;;;8.57;59.00
76940;BME280;65885;55.848;35.916;2023-06-22T01:43:47;99536.09;;;8.58;59.72
76940;BME280;65885;55.848;35.916;2023-06-22T01:46:16;99533.41;;;8.60;59.13
76940;BME280;65885;55.848;35.916;2023-06-22T01:48:45;99535.94;;;8.63;59.75
76940;BME280;65885;55.848;35.916;2023-06-22T01:51:13;99540.22;;;8.66;60.72
76940;BME280;65885;55.848;35.916;2023-06-22T01:53:40;99534.03;;;8.68;61.08
76940;BME280;65885;55.848;35.916;2023-06-22T01:56:08;99534.84;;;8.70;60.32
76940;BME280;65885;55.848;35.916;2023-06-22T01:58:38;99536.50;;;8.73;60.95
76940;BME280;65885;55.848;35.916;2023-06-22T02:01:12;99525.06;;;8.75;60.94
76940;BME280;65885;55.848;35.916;2023-06-22T02:03:44;99519.75;;;8.78;60.59
76940;BME280;65885;55.848;35.916;2023-06-22T02:06:18;99524.94;;;8.80;59.48
76940;BME280;65885;55.848;35.916;2023-06-22T02:08:53;99528.28;;;8.83;58.80
76940;BME280;65885;55.848;35.916;2023-06-22T02:11:25;99523.84;;;8.87;58.80
76940;BME280;65885;55.848;35.916;2023-06-22T02:13:54;99516.78;;;8.89;58.21
76940;BME280;65885;55.848;35.916;2023-06-22T02:16:22;99519.34;;;8.90;56.24
76940;BME280;65885;55.848;35.916;2023-06-22T02:18:51;99511.34;;;8.95;56.87
76940;BME280;65885;55.848;35.916;2023-06-22T02:21:18;99511.22;;;8.98;57.98
76940;BME280;65885;55.848;35.916;2023-06-22T02:23:46;99516.31;;;9.03;58.50
76940;BME280;65885;55.848;35.916;2023-06-22T02:26:15;99507.56;;;9.04;59.28
76940;BME280;65885;55.848;35.916;2023-06-22T02:28:43;99511.75;;;9.09;59.82
76940;BME280;65885;55.848;35.916;2023-06-22T02:31:11;99507.25;;;9.13;60.20
76940;BME280;65885;55.848;35.916;2023-06-22T02:33:38;99508.84;;;9.17;60.97
76940;BME280;65885;55.848;35.916;2023-06-22T02:36:08;99498.28;;;9.20;61.66
76940;BME280;65885;55.848;35.916;2023-06-22T02:38:35;99506.81;;;9.25;61.10
76940;BME280;65885;55.848;35.916;2023-06-22T02:41:03;99500.56;;;9.29;60.20
76940;BME280;65885;55.848;35.916;2023-06-22T02:43:30;99502.97;;;9.35;60.23
76940;BME280;65885;55.848;35.916;2023-06-22T02:45:57;99510.59;;;9.41;59.75
76940;BME280;65885;55.848;35.916;2023-06-22T02:48:25;99500.78;;;9.48;60.05
76940;BME280;65885;55.848;35.916;2023-06-22T02:50:52;99498.84;;;9.53;60.44
76940;BME280;65885;55.848;35.916;2023-06-22T02:53:21;99498.50;;;9.62;61.37
76940;BME280;65885;55.848;35.916;2023-06-22T02:55:48;99504.31;;;9.70;60.93
76940;BME280;65885;55.848;35.916;2023-06-22T02:58:15;99494.47;;;9.77;60.90
76940;BME280;65885;55.848;35.916;2023-06-22T03:00:43;99489.81;;;9.85;60.01
76940;BME280;65885;55.848;35.916;2023-06-22T03:03:10;99493.91;;;9.92;58.54
76940;BME280;65885;55.848;35.916;2023-06-22T03:05:37;99498.72;;;10.03;58.42
76940;BME280;65885;55.848;35.916;2023-06-22T03:08:06;99495.72;;;10.12;59.19
76940;BME280;65885;55.848;35.916;2023-06-22T03:10:34;99490.13;;;10.23;59.95
76940;BME280;65885;55.848;35.916;2023-06-22T03:13:02;99485.28;;;10.34;60.78
76940;BME280;65885;55.848;35.916;2023-06-22T03:15:29;99491.03;;;10.44;61.10
76940;BME280;65885;55.848;35.916;2023-06-22T03:17:57;99493.22;;;10.54;61.15
76940;BME280;65885;55.848;35.916;2023-06-22T03:20:24;99491.88;;;10.66;61.62
76940;BME280;65885;55.848;35.916;2023-06-22T03:22:52;99492.22;;;10.79;62.65
76940;BME280;65885;55.848;35.916;2023-06-22T03:25:20;99484.69;;;10.92;62.95
76940;BME280;65885;55.848;35.916;2023-06-22T03:27:48;99488.44;;;11.06;63.42
76940;BME280;65885;55.848;35.916;2023-06-22T03:30:16;99480.81;;;11.21;63.52
76940;BME280;65885;55.848;35.916;2023-06-22T03:32:43;99474.97;;;11.34;62.81
76940;BME280;65885;55.848;35.916;2023-06-22T03:35:12;99471.53;;;11.53;63.66
76940;BME280;65885;55.848;35.916;2023-06-22T03:37:40;99475.88;;;11.73;64.40
76940;BME280;65885;55.848;35.916;2023-06-22T03:40:08;99471.66;;;11.89;63.13
76940;BME280;65885;55.848;35.916;2023-06-22T03:42:36;99472.47;;;12.08;61.37
76940;BME280;65885;55.848;35.916;2023-06-22T03:45:06;99471.47;;;12.30;61.06
76940;BME280;65885;55.848;35.916;2023-06-22T03:47:33;99477.31;;;12.54;61.71
76940;BME280;65885;55.848;35.916;2023-06-22T03:50:01;99470.91;;;12.76;62.55
76940;BME280;65885;55.848;35.916;2023-06-22T03:52:29;99480.28;;;12.99;64.34
76940;BME280;65885;55.848;35.916;2023-06-22T03:54:57;99481.16;;;13.17;63.30
76940;BME280;65885;55.848;35.916;2023-06-22T03:57:24;99478.44;;;13.36;63.34
76940;BME280;65885;55.848;35.916;2023-06-22T03:59:51;99480.03;;;13.56;64.40
76940;BME280;65885;55.848;35.916;2023-06-22T04:02:20;99481.00;;;13.71;64.66
76940;BME280;65885;55.848;35.916;2023-06-22T04:04:48;99484.69;;;13.84;63.73
76940;BME280;65885;55.848;35.916;2023-06-22T04:07:15;99487.41;;;13.98;61.24
76940;BME280;65885;55.848;35.916;2023-06-22T04:09:43;99473.31;;;14.15;58.94
76940;BME280;65885;55.848;35.916;2023-06-22T04:12:11;99480.25;;;14.32;57.87
76940;BME280;65885;55.848;35.916;2023-06-22T04:14:38;99468.78;;;14.49;57.80
76940;BME280;65885;55.848;35.916;2023-06-22T04:17:05;99475.81;;;14.64;57.45
76940;BME280;65885;55.848;35.916;2023-06-22T04:19:34;99478.50;;;14.78;56.50
76940;BME280;65885;55.848;35.916;2023-06-22T04:22:01;99477.63;;;14.93;56.02
76940;BME280;65885;55.848;35.916;2023-06-22T04:24:29;99473.13;;;15.10;56.09
76940;BME280;65885;55.848;35.916;2023-06-22T04:26:56;99464.28;;;15.25;57.07
76940;BME280;65885;55.848;35.916;2023-06-22T04:29:23;99461.66;;;15.39;57.31
76940;BME280;65885;55.848;35.916;2023-06-22T04:31:54;99466.84;;;15.55;56.65
76940;BME280;65885;55.848;35.916;2023-06-22T04:34:24;99467.72;;;15.70;55.79
76940;BME280;65885;55.848;35.916;2023-06-22T04:36:53;99462.34;;;15.86;55.36
76940;BME280;65885;55.848;35.916;2023-06-22T04:39:21;99463.06;;;16.02;55.24
76940;BME280;65885;55.848;35.916;2023-06-22T04:41:49;99452.38;;;16.18;55.03
76940;BME280;65885;55.848;35.916;2023-06-22T04:44:18;99452.22;;;16.33;55.05
76940;BME280;65885;55.848;35.916;2023-06-22T04:46:51;99446.78;;;16.49;54.87
76940;BME280;65885;55.848;35.916;2023-06-22T04:49:20;99441.44;;;16.63;54.86
76940;BME280;65885;55.848;35.916;2023-06-22T04:51:48;99441.28;;;16.79;54.18
76940;BME280;65885;55.848;35.916;2023-06-22T04:54:18;99438.44;;;16.95;53.91
76940;BME280;65885;55.848;35.916;2023-06-22T04:56:46;99440.91;;;17.11;53.53
76940;BME280;65885;55.848;35.916;2023-06-22T04:59:14;99437.19;;;17.26;53.84
76940;BME280;65885;55.848;35.916;2023-06-22T05:01:44;99439.75;;;17.40;53.49
76940;BME280;65885;55.848;35.916;2023-06-22T05:04:11;99430.81;;;17.54;52.94
76940;BME280;65885;55.848;35.916;2023-06-22T05:06:38;99436.84;;;17.69;52.28
76940;BME280;65885;55.848;35.916;2023-06-22T05:09:06;99436.63;;;17.85;52.26
76940;BME280;65885;55.848;35.916;2023-06-22T05:11:34;99433.72;;;18.00;51.77
76940;BME280;65885;55.848;35.916;2023-06-22T05:14:03;99433.47;;;18.16;51.25
76940;BME280;65885;55.848;35.916;2023-06-22T05:16:30;99438.63;;;18.30;50.97
76940;BME280;65885;55.848;35.916;2023-06-22T05:18:58;99430.56;;;18.43;50.56
76940;BME280;65885;55.848;35.916;2023-06-22T05:21:26;99430.31;;;18.59;50.42
76940;BME280;65885;55.848;35.916;2023-06-22T05:23:54;99432.69;;;18.75;50.32
76940;BME280;65885;55.848;35.916;2023-06-22T05:26:26;99425.25;;;18.91;50.05
76940;BME280;65885;55.848;35.916;2023-06-22T05:28:55;99423.09;;;19.07;49.63
76940;BME280;65885;55.848;35.916;2023-06-22T05:31:23;99423.47;;;19.25;49.36
76940;BME280;65885;55.848;35.916;2023-06-22T05:33:52;99418.44;;;19.45;49.35
76940;BME280;65885;55.848;35.916;2023-06-22T05:36:21;99414.22;;;19.64;49.37
76940;BME280;65885;55.848;35.916;2023-06-22T05:38:51;99410.81;;;19.85;49.03
76940;BME280;65885;55.848;35.916;2023-06-22T05:41:18;99413.72;;;20.04;48.78
76940;BME280;65885;55.848;35.916;2023-06-22T05:43:46;99415.47;;;20.26;48.66
76940;BME280;65885;55.848;35.916;2023-06-22T05:46:15;99413.84;;;20.46;48.29
76940;BME280;65885;55.848;35.916;2023-06-22T05:48:43;99418.22;;;20.68;47.96
76940;BME280;65885;55.848;35.916;2023-06-22T05:51:10;99415.00;;;20.85;47.38
76940;BME280;65885;55.848;35.916;2023-06-22T05:53:37;99415.28;;;21.03;47.25
76940;BME280;65885;55.848;35.916;2023-06-22T05:56:05;99416.34;;;21.21;46.80
76940;BME280;65885;55.848;35.916;2023-06-22T05:58:32;99409.47;;;21.40;46.89
76940;BME280;65885;55.848;35.916;2023-06-22T06:00:59;99419.25;;;21.60;46.83
76940;BME280;65885;55.848;35.916;2023-06-22T06:03:29;99414.69;;;21.81;46.77
76940;BME280;65885;55.848;35.916;2023-06-22T06:05:56;99421.34;;;22.06;46.50
76940;BME280;65885;55.848;35.916;2023-06-22T06:08:24;99414.25;;;22.26;46.10
76940;BME280;65885;55.848;35.916;2023-06-22T06:10:52;99413.31;;;22.47;46.09
76940;BME280;65885;55.848;35.916;2023-06-22T06:13:20;99408.50;;;22.69;46.17
76940;BME280;65885;55.848;35.916;2023-06-22T06:15:48;99414.44;;;22.92;46.06
76940;BME280;65885;55.848;35.916;2023-06-22T06:18:17;99420.00;;;23.18;45.50
76940;BME280;65885;55.848;35.916;2023-06-22T06:20:45;99408.69;;;23.44;45.05
76940;BME280;65885;55.848;35.916;2023-06-22T06:23:13;99410.03;;;23.67;44.41
76940;BME280;65885;55.848;35.916;2023-06-22T06:25:40;99404.56;;;23.87;44.15
76940;BME280;65885;55.848;35.916;2023-06-22T06:28:07;99403.78;;;24.04;43.73
76940;BME280;65885;55.848;35.916;2023-06-22T06:30:36;99397.00;;;24.27;43.79
76940;BME280;65885;55.848;35.916;2023-06-22T06:33:04;99397.63;;;24.57;43.59
76940;BME280;65885;55.848;35.916;2023-06-22T06:35:34;99394.84;;;24.84;42.97
76940;BME280;65885;55.848;35.916;2023-06-22T06:38:04;99395.25;;;25.15;42.95
76940;BME280;65885;55.848;35.916;2023-06-22T06:40:32;99392.91;;;25.46;42.39
76940;BME280;65885;55.848;35.916;2023-06-22T06:42:59;99399.81;;;25.75;42.10
76940;BME280;65885;55.848;35.916;2023-06-22T06:45:27;99397.72;;;26.03;41.54
76940;BME280;65885;55.848;35.916;2023-06-22T06:47:56;99392.94;;;26.31;41.41
76940;BME280;65885;55.848;35.916;2023-06-22T06:50:24;99390.78;;;26.59;41.20
76940;BME280;65885;55.848;35.916;2023-06-22T06:52:51;99387.28;;;26.83;40.40
76940;BME280;65885;55.848;35.916;2023-06-22T06:55:20;99382.91;;;27.06;39.59
76940;BME280;65885;55.848;35.916;2023-06-22T06:57:50;99386.38;;;27.31;39.95
76940;BME280;65885;55.848;35.916;2023-06-22T07:00:19;99384.81;;;27.53;39.26
76940;BME280;65885;55.848;35.916;2023-06-22T07:02:46;99384.91;;;27.76;39.63
76940;BME280;65885;55.848;35.916;2023-06-22T07:05:14;99375.38;;;27.97;38.31
76940;BME280;65885;55.848;35.916;2023-06-22T07:07:41;99381.69;;;28.12;38.06
76940;BME280;65885;55.848;35.916;2023-06-22T07:10:09;99378.41;;;28.25;37.71
76940;BME280;65885;55.848;35.916;2023-06-22T07:12:38;99382.94;;;28.32;37.42
76940;BME280;65885;55.848;35.916;2023-06-22T07:15:07;99385.56;;;28.40;37.24
76940;BME280;65885;55.848;35.916;2023-06-22T07:17:35;99391.78;;;28.49;36.51
76940;BME280;65885;55.848;35.916;2023-06-22T07:20:03;99391.22;;;28.54;36.12
76940;BME280;65885;55.848;35.916;2023-06-22T07:22:35;99386.66;;;28.54;35.87
76940;BME280;65885;55.848;35.916;2023-06-22T07:25:03;99392.72;;;28.56;35.52
76940;BME280;65885;55.848;35.916;2023-06-22T07:27:36;99391.53;;;28.59;35.28
76940;BME280;65885;55.848;35.916;2023-06-22T07:30:08;99386.78;;;28.61;35.37
76940;BME280;65885;55.848;35.916;2023-06-22T07:32:35;99384.09;;;28.61;34.46
76940;BME280;65885;55.848;35.916;2023-06-22T07:35:03;99385.22;;;28.66;34.73
76940;BME280;65885;55.848;35.916;2023-06-22T07:37:32;99382.91;;;28.78;34.35
76940;BME280;65885;55.848;35.916;2023-06-22T07:40:00;99385.03;;;28.91;34.09
76940;BME280;65885;55.848;35.916;2023-06-22T07:42:31;99383.28;;;28.98;34.14
76940;BME280;65885;55.848;35.916;2023-06-22T07:45:00;99376.44;;;29.10;34.46
76940;BME280;65885;55.848;35.916;2023-06-22T07:47:31;99389.56;;;29.28;34.16
76940;BME280;65885;55.848;35.916;2023-06-22T07:50:01;99383.88;;;29.38;32.84
76940;BME280;65885;55.848;35.916;2023-06-22T07:52:30;99380.53;;;29.36;32.12
76940;BME280;65885;55.848;35.916;2023-06-22T07:54:58;99381.38;;;29.36;32.21
76940;BME280;65885;55.848;35.916;2023-06-22T07:57:25;99380.16;;;29.39;32.75
76940;BME280;65885;55.848;35.916;2023-06-22T07:59:58;99372.72;;;29.41;32.14
76940;BME280;65885;55.848;35.916;2023-06-22T08:02:26;99367.88;;;29.51;32.43
76940;BME280;65885;55.848;35.916;2023-06-22T08:04:55;99365.63;;;29.69;31.96
76940;BME280;65885;55.848;35.916;2023-06-22T08:07:22;99359.00;;;29.87;31.27
76940;BME280;65885;55.848;35.916;2023-06-22T08:09:49;99356.41;;;30.00;31.41
76940;BME280;65885;55.848;35.916;2023-06-22T08:12:16;99347.44;;;30.14;31.04
76940;BME280;65885;55.848;35.916;2023-06-22T08:14:44;99351.78;;;30.30;30.73
76940;BME280;65885;55.848;35.916;2023-06-22T08:17:12;99351.47;;;30.39;31.28
76940;BME280;65885;55.848;35.916;2023-06-22T08:19:40;99347.59;;;30.49;30.98
76940;BME280;65885;55.848;35.916;2023-06-22T08:22:09;99347.06;;;30.60;30.63
76940;BME280;65885;55.848;35.916;2023-06-22T08:24:36;99350.69;;;30.67;30.77
76940;BME280;65885;55.848;35.916;2023-06-22T08:27:07;99351.41;;;30.76;30.60
76940;BME280;65885;55.848;35.916;2023-06-22T08:29:35;99347.06;;;30.81;30.04
76940;BME280;65885;55.848;35.916;2023-06-22T08:32:03;99345.47;;;30.87;30.38
76940;BME280;65885;55.848;35.916;2023-06-22T08:34:30;99340.53;;;30.97;30.47
76940;BME280;65885;55.848;35.916;2023-06-22T08:36:58;99337.69;;;31.12;30.41
76940;BME280;65885;55.848;35.916;2023-06-22T08:39:26;99344.28;;;31.24;28.47
76940;BME280;65885;55.848;35.916;2023-06-22T08:41:55;99331.78;;;31.23;28.92
76940;BME280;65885;55.848;35.916;2023-06-22T08:44:22;99330.31;;;31.27;29.07
76940;BME280;65885;55.848;35.916;2023-06-22T08:46:49;99319.41;;;31.20;27.66
76940;BME280;65885;55.848;35.916;2023-06-22T08:49:17;99319.25;;;31.22;29.01
76940;BME280;65885;55.848;35.916;2023-06-22T08:51:45;99331.22;;;31.41;29.08
76940;BME280;65885;55.848;35.916;2023-06-22T08:54:15;99325.72;;;31.62;29.30
76940;BME280;65885;55.848;35.916;2023-06-22T08:56:43;99319.56;;;31.82;29.03
76940;BME280;65885;55.848;35.916;2023-06-22T08:59:11;99317.72;;;31.95;28.91
76940;BME280;65885;55.848;35.916;2023-06-22T09:01:38;99320.25;;;32.17;28.87
76940;BME280;65885;55.848;35.916;2023-06-22T09:04:05;99328.03;;;32.33;28.36
76940;BME280;65885;55.848;35.916;2023-06-22T09:06:35;99321.19;;;32.44;27.72
76940;BME280;65885;55.848;35.916;2023-06-22T09:09:07;99317.41;;;32.51;27.37
76940;BME280;65885;55.848;35.916;2023-06-22T09:11:34;99313.88;;;32.57;27.59
76940;BME280;65885;55.848;35.916;2023-06-22T09:14:03;99309.47;;;32.63;27.19
76940;BME280;65885;55.848;35.916;2023-06-22T09:16:32;99307.81;;;32.69;27.20
76940;BME280;65885;55.848;35.916;2023-06-22T09:18:59;99304.25;;;32.81;27.30
76940;BME280;65885;55.848;35.916;2023-06-22T09:21:27;99311.38;;;32.96;27.09
76940;BME280;65885;55.848;35.916;2023-06-22T09:23:55;99302.13;;;33.10;26.44
76940;BME280;65885;55.848;35.916;2023-06-22T09:26:23;99297.91;;;33.21;26.32
76940;BME280;65885;55.848;35.916;2023-06-22T09:28:51;99300.41;;;33.29;25.98
76940;BME280;65885;55.848;35.916;2023-06-22T09:31:20;99301.22;;;33.36;25.88
76940;BME280;65885;55.848;35.916;2023-06-22T09:33:52;99291.41;;;33.42;25.54
76940;BME280;65885;55.848;35.916;2023-06-22T09:36:20;99290.34;;;33.49;25.75
76940;BME280;65885;55.848;35.916;2023-06-22T09:38:47;99298.63;;;33.61;25.38
76940;BME280;65885;55.848;35.916;2023-06-22T09:41:21;99282.28;;;33.67;25.52
76940;BME280;65885;55.848;35.916;2023-06-22T09:43:50;99288.72;;;33.80;25.26
76940;BME280;65885;55.848;35.916;2023-06-22T09:46:17;99285.09;;;33.92;24.42
76940;BME280;65885;55.848;35.916;2023-06-22T09:48:48;99279.84;;;33.98;23.98
76940;BME280;65885;55.848;35.916;2023-06-22T09:51:17;99277.53;;;34.01;23.91
76940;BME280;65885;55.848;35.916;2023-06-22T09:53:45;99272.69;;;34.03;24.39
76940;BME280;65885;55.848;35.916;2023-06-22T09:56:13;99273.91;;;34.07;23.71
76940;BME280;65885;55.848;35.916;2023-06-22T09:58:41;99283.72;;;34.08;23.49
76940;BME280;65885;55.848;35.916;2023-06-22T10:01:09;99274.13;;;34.06;23.36
76940;BME280;65885;55.848;35.916;2023-06-22T10:03:37;99276.63;;;34.07;23.78
76940;BME280;65885;55.848;35.916;2023-06-22T10:06:05;99266.97;;;34.11;24.02
76940;BME280;65885;55.848;35.916;2023-06-22T10:08:33;99266.53;;;34.14;23.32
76940;BME280;65885;55.848;35.916;2023-06-22T10:11:00;99263.19;;;34.12;23.44
76940;BME280;65885;55.848;35.916;2023-06-22T10:13:27;99257.75;;;34.12;23.55
76940;BME280;65885;55.848;35.916;2023-06-22T10:15:54;99261.91;;;34.15;23.85
76940;BME280;65885;55.848;35.916;2023-06-22T10:18:22;99251.81;;;34.22;24.01
76940;BME280;65885;55.848;35.916;2023-06-22T10:20:50;99255.75;;;34.26;24.48
76940;BME280;65885;55.848;35.916;2023-06-22T10:23:19;99250.91;;;34.03;23.48
76940;BME280;65885;55.848;35.916;2023-06-22T10:25:48;99247.41;;;33.96;23.78
76940;BME280;65885;55.848;35.916;2023-06-22T10:28:15;99242.75;;;34.03;24.45
76940;BME280;65885;55.848;35.916;2023-06-22T10:30:43;99244.97;;;34.13;24.18
76940;BME280;65885;55.848;35.916;2023-06-22T10:33:11;99236.75;;;34.19;23.67
76940;BME280;65885;55.848;35.916;2023-06-22T10:35:39;99233.28;;;34.31;23.66
76940;BME280;65885;55.848;35.916;2023-06-22T10:38:06;99234.88;;;34.45;23.75
76940;BME280;65885;55.848;35.916;2023-06-22T10:40:35;99236.44;;;34.59;23.42
76940;BME280;65885;55.848;35.916;2023-06-22T10:43:05;99227.53;;;34.70;23.43
76940;BME280;65885;55.848;35.916;2023-06-22T10:45:32;99237.72;;;34.75;23.08
76940;BME280;65885;55.848;35.916;2023-06-22T10:47:59;99218.59;;;34.82;23.22
76940;BME280;65885;55.848;35.916;2023-06-22T10:50:27;99223.34;;;34.93;22.66
76940;BME280;65885;55.848;35.916;2023-06-22T10:52:55;99223.25;;;34.99;22.00
76940;BME280;65885;55.848;35.916;2023-06-22T10:55:22;99227.41;;;35.02;21.45
76940;BME280;65885;55.848;35.916;2023-06-22T10:57:51;99223.88;;;35.01;21.44
76940;BME280;65885;55.848;35.916;2023-06-22T11:00:19;99218.41;;;35.01;21.28
76940;BME280;65885;55.848;35.916;2023-06-22T11:02:47;99217.41;;;34.96;21.40
76940;BME280;65885;55.848;35.916;2023-06-22T11:05:14;99211.88;;;34.84;21.47
76940;BME280;65885;55.848;35.916;2023-06-22T11:07:42;99205.41;;;34.79;21.50
76940;BME280;65885;55.848;35.916;2023-06-22T11:10:10;99202.09;;;34.76;21.46
76940;BME280;65885;55.848;35.916;2023-06-22T11:12:37;99196.41;;;34.78;21.51
76940;BME280;65885;55.848;35.916;2023-06-22T11:15:08;99190.72;;;34.80;22.19
76940;BME280;65885;55.848;35.916;2023-06-22T11:17:36;99193.00;;;34.83;22.58
76940;BME280;65885;55.848;35.916;2023-06-22T11:20:04;99187.25;;;34.91;21.49
76940;BME280;65885;55.848;35.916;2023-06-22T11:22:36;99185.28;;;34.98;21.87
76940;BME280;65885;55.848;35.916;2023-06-22T11:25:05;99190.31;;;35.01;21.39
76940;BME280;65885;55.848;35.916;2023-06-22T11:27:33;99185.44;;;35.03;21.93
76940;BME280;65885;55.848;35.916;2023-06-22T11:30:00;99179.09;;;35.09;21.72
76940;BME280;65885;55.848;35.916;2023-06-22T11:32:31;99184.69;;;35.14;21.82
76940;BME280;65885;55.848;35.916;2023-06-22T11:34:58;99173.09;;;35.19;21.84
76940;BME280;65885;55.848;35.916;2023-06-22T11:37:25;99175.72;;;35.25;21.84
76940;BME280;65885;55.848;35.916;2023-06-22T11:39:53;99173.16;;;35.30;21.21
76940;BME280;65885;55.848;35.916;2023-06-22T11:42:21;99162.59;;;35.34;21.26
76940;BME280;65885;55.848;35.916;2023-06-22T11:44:49;99182.66;;;35.40;21.12
76940;BME280;65885;55.848;35.916;2023-06-22T11:47:16;99174.88;;;35.43;20.94
76940;BME280;65885;55.848;35.916;2023-06-22T11:49:45;99177.22;;;35.40;20.71
76940;BME280;65885;55.848;35.916;2023-06-22T11:52:13;99172.66;;;35.34;20.78
76940;BME280;65885;55.848;35.916;2023-06-22T11:54:40;99162.22;;;35.30;20.71
76940;BME280;65885;55.848;35.916;2023-06-22T11:57:08;99156.38;;;35.27;20.80
76940;BME280;65885;55.848;35.916;2023-06-22T11:59:35;99157.47;;;35.26;20.27
76940;BME280;65885;55.848;35.916;2023-06-22T12:02:02;99161.50;;;35.23;19.94
76940;BME280;65885;55.848;35.916;2023-06-22T12:04:31;99158.03;;;35.16;20.20
76940;BME280;65885;55.848;35.916;2023-06-22T12:07:00;99154.53;;;35.09;19.98
76940;BME280;65885;55.848;35.916;2023-06-22T12:09:28;99149.16;;;35.02;20.30
76940;BME280;65885;55.848;35.916;2023-06-22T12:11:57;99133.13;;;34.94;19.59
76940;BME280;65885;55.848;35.916;2023-06-22T12:14:24;99142.66;;;34.85;19.78
76940;BME280;65885;55.848;35.916;2023-06-22T12:16:51;99135.00;;;34.75;19.87
76940;BME280;65885;55.848;35.916;2023-06-22T12:19:19;99126.44;;;34.72;20.04
76940;BME280;65885;55.848;35.916;2023-06-22T12:21:46;99123.97;;;34.70;20.34
76940;BME280;65885;55.848;35.916;2023-06-22T12:24:15;99121.47;;;34.69;20.53
76940;BME280;65885;55.848;35.916;2023-06-22T12:26:43;99120.25;;;34.65;19.79
76940;BME280;65885;55.848;35.916;2023-06-22T12:29:10;99115.53;;;34.54;19.72
76940;BME280;65885;55.848;35.916;2023-06-22T12:31:37;99119.03;;;34.42;20.05
76940;BME280;65885;55.848;35.916;2023-06-22T12:34:05;99110.72;;;34.31;20.01
76940;BME280;65885;55.848;35.916;2023-06-22T12:36:32;99107.69;;;34.20;19.87
76940;BME280;65885;55.848;35.916;2023-06-22T12:39:00;99118.88;;;34.12;20.26
76940;BME280;65885;55.848;35.916;2023-06-22T12:41:29;99110.16;;;34.04;20.03
76940;BME280;65885;55.848;35.916;2023-06-22T12:43:56;99107.50;;;33.97;20.46
76940;BME280;65885;55.848;35.916;2023-06-22T12:46:24;99107.56;;;33.90;20.05
76940;BME280;65885;55.848;35.916;2023-06-22T12:48:51;99099.63;;;33.82;20.30
76940;BME280;65885;55.848;35.916;2023-06-22T12:51:22;99104.53;;;33.74;20.26
76940;BME280;65885;55.848;35.916;2023-06-22T12:53:50;99102.09;;;33.65;20.21
76940;BME280;65885;55.848;35.916;2023-06-22T12:56:17;99093.97;;;33.59;20.28
76940;BME280;65885;55.848;35.916;2023-06-22T12:58:46;99092.53;;;33.56;20.22